sensor_id;sensor_type;location;lat;lon;timestamp;temperature;humidity
60353;DHT22;46196;52.970;6.954;2022-08-19T00:00:03;16.30;99.90
60353;DHT22;46196;52.970;6.954;2022-08-19T00:02:29;16.30;99.90
60353;DHT22;46196;52.970;6.954;2022-08-19T00:04:55;16.30;99.90
60353;DHT22;46196;52.970;6.954;2022-08-19T00:07:21;16.20;99.90
60353;DHT22;46196;52.970;6.954;2022-08-19T00:09:47;16.20;99.90
60353;DHT22;46196;52.970;6.954;2022-08-19T00:12:12;16.20;99.90
60353;DHT22;46196;52.970;6.954;2022-08-19T00:14:38;16.20;99.90
60353;DHT22;46196;52.970;6.954;2022-08-19T00:17:06;16.10;99.90
60353;DHT22;46196;52.970;6.954;2022-08-19T00:19:32;16.10;99.90
60353;DHT22;46196;52.970;6.954;2022-08-19T00:21:58;16.10;99.90
60353;DHT22;46196;52.970;6.954;2022-08-19T00:24:24;16.10;99.90
60353;DHT22;46196;52.970;6.954;2022-08-19T00:26:51;16.10;99.90
60353;DHT22;46196;52.970;6.954;2022-08-19T00:29:19;16.00;99.90
60353;DHT22;46196;52.970;6.954;2022-08-19T00:31:45;16.00;99.90
60353;DHT22;46196;52.970;6.954;2022-08-19T00:34:13;16.00;99.90
60353;DHT22;46196;52.970;6.954;2022-08-19T00:36:40;16.00;99.90
60353;DHT22;46196;52.970;6.954;2022-08-19T00:39:07;16.00;99.90
60353;DHT22;46196;52.970;6.954;2022-08-19T00:41:32;15.90;99.90
60353;DHT22;46196;52.970;6.954;2022-08-19T00:46:30;15.90;99.90
60353;DHT22;46196;52.970;6.954;2022-08-19T00:48:57;15.90;99.90
60353;DHT22;46196;52.970;6.954;2022-08-19T00:51:25;15.90;99.90
60353;DHT22;46196;52.970;6.954;2022-08-19T00:53:53;15.80;99.90
60353;DHT22;46196;52.970;6.954;2022-08-19T00:56:19;15.80;99.90
60353;DHT22;46196;52.970;6.954;2022-08-19T00:58:45;15.80;99.90
60353;DHT22;46196;52.970;6.954;2022-08-19T01:01:11;15.80;99.90
60353;DHT22;46196;52.970;6.954;2022-08-19T01:03:37;15.80;99.90
60353;DHT22;46196;52.970;6.954;2022-08-19T01:06:03;15.70;99.90
60353;DHT22;46196;52.970;6.954;2022-08-19T01:08:30;15.70;99.90
60353;DHT22;46196;52.970;6.954;2022-08-19T01:10:58;15.70;99.90
60353;DHT22;46196;52.970;6.954;2022-08-19T01:13:27;15.70;99.90
60353;DHT22;46196;52.970;6.954;2022-08-19T01:16:09;15.70;99.90
60353;DHT22;46196;52.970;6.954;2022-08-19T01:18:41;15.70;99.90
60353;DHT22;46196;52.970;6.954;2022-08-19T01:23:54;15.70;99.90
60353;DHT22;46196;52.970;6.954;2022-08-19T01:26:22;15.60;99.90
60353;DHT22;46196;52.970;6.954;2022-08-19T01:28:51;15.60;99.90
60353;DHT22;46196;52.970;6.954;2022-08-19T01:31:19;15.60;99.90
60353;DHT22;46196;52.970;6.954;2022-08-19T01:33:48;15.60;99.90
60353;DHT22;46196;52.970;6.954;2022-08-19T01:36:23;15.60;99.90
60353;DHT22;46196;52.970;6.954;2022-08-19T01:38:51;15.60;99.90
60353;DHT22;46196;52.970;6.954;2022-08-19T01:41:17;15.60;99.90
60353;DHT22;46196;52.970;6.954;2022-08-19T01:43:43;15.50;99.90
60353;DHT22;46196;52.970;6.954;2022-08-19T01:46:09;15.50;99.90
60353;DHT22;46196;52.970;6.954;2022-08-19T01:48:40;15.50;99.90
60353;DHT22;46196;52.970;6.954;2022-08-19T01:51:07;15.50;99.90
60353;DHT22;46196;52.970;6.954;2022-08-19T01:53:34;15.40;99.90
60353;DHT22;46196;52.970;6.954;2022-08-19T01:56:01;15.40;99.90
60353;DHT22;46196;52.970;6.954;2022-08-19T01:58:32;15.40;99.90
60353;DHT22;46196;52.970;6.954;2022-08-19T02:01:02;15.30;99.90
60353;DHT22;46196;52.970;6.954;2022-08-19T02:03:28;15.30;99.90
60353;DHT22;46196;52.970;6.954;2022-08-19T02:05:59;15.30;99.90
60353;DHT22;46196;52.970;6.954;2022-08-19T02:08:26;15.20;99.90
60353;DHT22;46196;52.970;6.954;2022-08-19T02:10:53;15.20;99.90
60353;DHT22;46196;52.970;6.954;2022-08-19T02:13:19;15.10;99.90
60353;DHT22;46196;52.970;6.954;2022-08-19T02:15:45;15.10;99.90
60353;DHT22;46196;52.970;6.954;2022-08-19T02:18:12;15.10;99.90
60353;DHT22;46196;52.970;6.954;2022-08-19T02:20:38;15.00;99.90
60353;DHT22;46196;52.970;6.954;2022-08-19T02:23:05;15.00;99.90
60353;DHT22;46196;52.970;6.954;2022-08-19T02:25:31;15.00;99.90
60353;DHT22;46196;52.970;6.954;2022-08-19T02:27:57;15.00;99.90
60353;DHT22;46196;52.970;6.954;2022-08-19T02:30:23;14.90;99.90
60353;DHT22;46196;52.970;6.954;2022-08-19T02:32:50;15.00;99.90
60353;DHT22;46196;52.970;6.954;2022-08-19T02:35:16;14.90;99.90
60353;DHT22;46196;52.970;6.954;2022-08-19T02:37:43;14.80;99.90
60353;DHT22;46196;52.970;6.954;2022-08-19T02:40:29;14.80;99.90
60353;DHT22;46196;52.970;6.954;2022-08-19T02:42:55;14.80;99.90
60353;DHT22;46196;52.970;6.954;2022-08-19T02:45:21;14.80;99.90
60353;DHT22;46196;52.970;6.954;2022-08-19T02:47:47;14.80;99.90
60353;DHT22;46196;52.970;6.954;2022-08-19T02:50:13;14.70;99.90
60353;DHT22;46196;52.970;6.954;2022-08-19T02:52:40;14.70;99.90
60353;DHT22;46196;52.970;6.954;2022-08-19T02:55:06;14.70;99.90
60353;DHT22;46196;52.970;6.954;2022-08-19T02:57:32;14.70;99.90
60353;DHT22;46196;52.970;6.954;2022-08-19T02:59:58;14.70;99.90
60353;DHT22;46196;52.970;6.954;2022-08-19T03:02:24;14.60;99.90
60353;DHT22;46196;52.970;6.954;2022-08-19T03:04:50;14.60;99.90
60353;DHT22;46196;52.970;6.954;2022-08-19T03:07:16;14.60;99.90
60353;DHT22;46196;52.970;6.954;2022-08-19T03:09:42;14.60;99.90
60353;DHT22;46196;52.970;6.954;2022-08-19T03:12:08;14.50;99.90
60353;DHT22;46196;52.970;6.954;2022-08-19T03:14:35;14.50;99.90
60353;DHT22;46196;52.970;6.954;2022-08-19T03:17:01;14.40;99.90
60353;DHT22;46196;52.970;6.954;2022-08-19T03:19:27;14.40;99.90
60353;DHT22;46196;52.970;6.954;2022-08-19T03:21:53;14.40;99.90
60353;DHT22;46196;52.970;6.954;2022-08-19T03:24:19;14.30;99.90
60353;DHT22;46196;52.970;6.954;2022-08-19T03:26:51;14.20;99.90
60353;DHT22;46196;52.970;6.954;2022-08-19T03:29:18;14.10;99.90
60353;DHT22;46196;52.970;6.954;2022-08-19T03:31:44;14.10;99.90
60353;DHT22;46196;52.970;6.954;2022-08-19T03:34:11;14.00;99.90
60353;DHT22;46196;52.970;6.954;2022-08-19T03:36:38;13.90;99.90
60353;DHT22;46196;52.970;6.954;2022-08-19T03:39:04;13.80;99.90
60353;DHT22;46196;52.970;6.954;2022-08-19T03:41:32;13.80;99.90
60353;DHT22;46196;52.970;6.954;2022-08-19T03:43:58;13.80;99.90
60353;DHT22;46196;52.970;6.954;2022-08-19T03:46:29;13.70;99.90
60353;DHT22;46196;52.970;6.954;2022-08-19T03:48:57;13.60;99.90
60353;DHT22;46196;52.970;6.954;2022-08-19T03:51:28;13.60;99.90
60353;DHT22;46196;52.970;6.954;2022-08-19T03:53:57;13.60;99.90
60353;DHT22;46196;52.970;6.954;2022-08-19T03:56:24;13.60;99.90
60353;DHT22;46196;52.970;6.954;2022-08-19T03:58:58;13.50;99.90
60353;DHT22;46196;52.970;6.954;2022-08-19T04:01:28;13.50;99.90
60353;DHT22;46196;52.970;6.954;2022-08-19T04:03:56;13.50;99.90
60353;DHT22;46196;52.970;6.954;2022-08-19T04:06:27;13.40;99.90
60353;DHT22;46196;52.970;6.954;2022-08-19T04:08:55;13.50;99.90
60353;DHT22;46196;52.970;6.954;2022-08-19T04:11:24;13.40;99.90
60353;DHT22;46196;52.970;6.954;2022-08-19T04:13:52;13.50;99.90
60353;DHT22;46196;52.970;6.954;2022-08-19T04:16:19;13.40;99.90
60353;DHT22;46196;52.970;6.954;2022-08-19T04:18:46;13.40;99.90
60353;DHT22;46196;52.970;6.954;2022-08-19T04:21:21;13.40;99.90
60353;DHT22;46196;52.970;6.954;2022-08-19T04:23:48;13.40;99.90
60353;DHT22;46196;52.970;6.954;2022-08-19T04:26:16;13.40;99.90
60353;DHT22;46196;52.970;6.954;2022-08-19T04:28:44;13.40;99.90
60353;DHT22;46196;52.970;6.954;2022-08-19T04:31:18;13.40;99.90
60353;DHT22;46196;52.970;6.954;2022-08-19T04:33:45;13.40;99.90
60353;DHT22;46196;52.970;6.954;2022-08-19T04:36:22;13.30;99.90
60353;DHT22;46196;52.970;6.954;2022-08-19T04:38:49;13.30;99.90
60353;DHT22;46196;52.970;6.954;2022-08-19T04:41:16;13.30;99.90
60353;DHT22;46196;52.970;6.954;2022-08-19T04:44:01;13.30;99.90
60353;DHT22;46196;52.970;6.954;2022-08-19T04:46:28;13.30;99.90
60353;DHT22;46196;52.970;6.954;2022-08-19T04:48:56;13.30;99.90
60353;DHT22;46196;52.970;6.954;2022-08-19T04:51:23;13.20;99.90
60353;DHT22;46196;52.970;6.954;2022-08-19T04:53:49;13.20;99.90
60353;DHT22;46196;52.970;6.954;2022-08-19T04:56:16;13.20;99.90
60353;DHT22;46196;52.970;6.954;2022-08-19T04:58:47;13.20;99.90
60353;DHT22;46196;52.970;6.954;2022-08-19T05:01:25;13.20;99.90
60353;DHT22;46196;52.970;6.954;2022-08-19T05:03:51;13.10;99.90
60353;DHT22;46196;52.970;6.954;2022-08-19T05:06:20;13.20;99.90
60353;DHT22;46196;52.970;6.954;2022-08-19T05:08:47;13.20;99.90
60353;DHT22;46196;52.970;6.954;2022-08-19T05:11:23;13.20;99.90
60353;DHT22;46196;52.970;6.954;2022-08-19T05:13:50;13.20;99.90
60353;DHT22;46196;52.970;6.954;2022-08-19T05:16:18;13.20;99.90
60353;DHT22;46196;52.970;6.954;2022-08-19T05:18:45;13.50;99.90
60353;DHT22;46196;52.970;6.954;2022-08-19T05:21:31;13.20;99.90
60353;DHT22;46196;52.970;6.954;2022-08-19T05:24:16;13.30;99.90
60353;DHT22;46196;52.970;6.954;2022-08-19T05:26:45;13.30;99.90
60353;DHT22;46196;52.970;6.954;2022-08-19T05:29:12;13.30;99.90
60353;DHT22;46196;52.970;6.954;2022-08-19T05:31:39;13.40;99.90
60353;DHT22;46196;52.970;6.954;2022-08-19T05:34:05;13.40;99.90
60353;DHT22;46196;52.970;6.954;2022-08-19T05:36:40;13.50;99.90
60353;DHT22;46196;52.970;6.954;2022-08-19T05:39:08;13.50;99.90
60353;DHT22;46196;52.970;6.954;2022-08-19T05:41:34;13.60;99.90
60353;DHT22;46196;52.970;6.954;2022-08-19T05:44:04;13.60;99.90
60353;DHT22;46196;52.970;6.954;2022-08-19T05:46:36;13.60;99.90
60353;DHT22;46196;52.970;6.954;2022-08-19T05:49:04;13.70;99.90
60353;DHT22;46196;52.970;6.954;2022-08-19T05:51:32;13.70;99.90
60353;DHT22;46196;52.970;6.954;2022-08-19T05:54:00;13.70;99.90
60353;DHT22;46196;52.970;6.954;2022-08-19T05:56:25;13.80;99.90
60353;DHT22;46196;52.970;6.954;2022-08-19T05:58:51;13.80;99.90
60353;DHT22;46196;52.970;6.954;2022-08-19T06:01:19;13.90;99.90
60353;DHT22;46196;52.970;6.954;2022-08-19T06:03:46;14.00;99.90
60353;DHT22;46196;52.970;6.954;2022-08-19T06:06:15;14.00;99.90
60353;DHT22;46196;52.970;6.954;2022-08-19T06:08:41;14.10;99.90
60353;DHT22;46196;52.970;6.954;2022-08-19T06:14:02;14.30;99.90
60353;DHT22;46196;52.970;6.954;2022-08-19T06:16:28;14.40;99.90
60353;DHT22;46196;52.970;6.954;2022-08-19T06:18:59;14.50;99.90
60353;DHT22;46196;52.970;6.954;2022-08-19T06:21:27;14.60;99.90
60353;DHT22;46196;52.970;6.954;2022-08-19T06:23:54;14.70;99.90
60353;DHT22;46196;52.970;6.954;2022-08-19T06:26:21;14.80;99.90
60353;DHT22;46196;52.970;6.954;2022-08-19T06:28:48;14.90;99.90
60353;DHT22;46196;52.970;6.954;2022-08-19T06:31:21;15.00;99.90
60353;DHT22;46196;52.970;6.954;2022-08-19T06:33:48;15.20;99.90
60353;DHT22;46196;52.970;6.954;2022-08-19T06:36:27;15.30;99.90
60353;DHT22;46196;52.970;6.954;2022-08-19T06:38:57;15.50;99.90
60353;DHT22;46196;52.970;6.954;2022-08-19T06:41:27;15.60;99.90
60353;DHT22;46196;52.970;6.954;2022-08-19T06:43:54;15.80;99.90
60353;DHT22;46196;52.970;6.954;2022-08-19T06:46:21;15.90;99.90
60353;DHT22;46196;52.970;6.954;2022-08-19T06:48:47;16.00;99.90
60353;DHT22;46196;52.970;6.954;2022-08-19T06:51:17;16.10;99.90
60353;DHT22;46196;52.970;6.954;2022-08-19T06:53:48;16.20;99.90
60353;DHT22;46196;52.970;6.954;2022-08-19T06:56:16;16.40;99.90
60353;DHT22;46196;52.970;6.954;2022-08-19T06:58:42;16.50;99.90
60353;DHT22;46196;52.970;6.954;2022-08-19T07:01:09;16.60;99.90
60353;DHT22;46196;52.970;6.954;2022-08-19T07:03:36;16.70;99.90
60353;DHT22;46196;52.970;6.954;2022-08-19T07:06:09;16.90;99.90
60353;DHT22;46196;52.970;6.954;2022-08-19T07:08:36;17.00;99.90
60353;DHT22;46196;52.970;6.954;2022-08-19T07:11:05;17.10;99.90
60353;DHT22;46196;52.970;6.954;2022-08-19T07:13:33;17.20;99.90
60353;DHT22;46196;52.970;6.954;2022-08-19T07:16:06;17.30;99.90
60353;DHT22;46196;52.970;6.954;2022-08-19T07:18:32;17.40;99.90
60353;DHT22;46196;52.970;6.954;2022-08-19T07:21:20;17.50;99.90
60353;DHT22;46196;52.970;6.954;2022-08-19T07:23:47;17.70;99.90
60353;DHT22;46196;52.970;6.954;2022-08-19T07:26:17;17.90;99.90
60353;DHT22;46196;52.970;6.954;2022-08-19T07:28:46;18.00;99.90
60353;DHT22;46196;52.970;6.954;2022-08-19T07:31:13;18.20;99.90
60353;DHT22;46196;52.970;6.954;2022-08-19T07:33:40;18.60;99.90
60353;DHT22;46196;52.970;6.954;2022-08-19T07:36:10;19.30;99.90
60353;DHT22;46196;52.970;6.954;2022-08-19T07:38:38;20.10;99.90
60353;DHT22;46196;52.970;6.954;2022-08-19T07:41:05;21.00;99.90
60353;DHT22;46196;52.970;6.954;2022-08-19T07:43:31;21.80;99.90
60353;DHT22;46196;52.970;6.954;2022-08-19T07:45:58;22.50;99.90
60353;DHT22;46196;52.970;6.954;2022-08-19T07:48:27;23.10;99.90
60353;DHT22;46196;52.970;6.954;2022-08-19T07:50:56;23.80;99.90
60353;DHT22;46196;52.970;6.954;2022-08-19T07:53:23;24.30;99.90
60353;DHT22;46196;52.970;6.954;2022-08-19T07:55:50;24.70;99.90
60353;DHT22;46196;52.970;6.954;2022-08-19T07:58:19;24.80;99.90
60353;DHT22;46196;52.970;6.954;2022-08-19T08:00:47;24.80;99.90
60353;DHT22;46196;52.970;6.954;2022-08-19T08:03:15;24.90;99.90
60353;DHT22;46196;52.970;6.954;2022-08-19T08:05:41;25.10;99.90
60353;DHT22;46196;52.970;6.954;2022-08-19T08:08:26;25.20;99.90
60353;DHT22;46196;52.970;6.954;2022-08-19T08:11:11;25.60;99.90
60353;DHT22;46196;52.970;6.954;2022-08-19T08:13:37;26.00;99.90
60353;DHT22;46196;52.970;6.954;2022-08-19T08:16:04;26.40;99.90
60353;DHT22;46196;52.970;6.954;2022-08-19T08:18:29;26.80;99.90
60353;DHT22;46196;52.970;6.954;2022-08-19T08:20:57;27.00;99.90
60353;DHT22;46196;52.970;6.954;2022-08-19T08:23:24;27.00;99.90
60353;DHT22;46196;52.970;6.954;2022-08-19T08:25:56;27.10;99.90
60353;DHT22;46196;52.970;6.954;2022-08-19T08:28:22;27.30;99.90
60353;DHT22;46196;52.970;6.954;2022-08-19T08:30:49;27.40;99.90
60353;DHT22;46196;52.970;6.954;2022-08-19T08:33:24;27.40;99.90
60353;DHT22;46196;52.970;6.954;2022-08-19T08:35:49;27.50;99.90
60353;DHT22;46196;52.970;6.954;2022-08-19T08:38:15;27.70;99.90
60353;DHT22;46196;52.970;6.954;2022-08-19T08:46:01;28.10;98.30
60353;DHT22;46196;52.970;6.954;2022-08-19T08:51:11;28.40;97.40
60353;DHT22;46196;52.970;6.954;2022-08-19T08:53:38;28.50;97.00
60353;DHT22;46196;52.970;6.954;2022-08-19T08:56:07;28.60;96.10
60353;DHT22;46196;52.970;6.954;2022-08-19T08:59:16;28.70;96.80
60353;DHT22;46196;52.970;6.954;2022-08-19T09:01:44;28.90;93.70
60353;DHT22;46196;52.970;6.954;2022-08-19T09:04:12;28.80;94.60
60353;DHT22;46196;52.970;6.954;2022-08-19T09:09:32;28.90;92.60
60353;DHT22;46196;52.970;6.954;2022-08-19T09:12:24;29.00;94.10
60353;DHT22;46196;52.970;6.954;2022-08-19T09:15:09;29.10;91.00
60353;DHT22;46196;52.970;6.954;2022-08-19T09:17:35;29.10;91.70
60353;DHT22;46196;52.970;6.954;2022-08-19T09:22:39;29.00;90.50
60353;DHT22;46196;52.970;6.954;2022-08-19T09:25:08;29.10;81.20
60353;DHT22;46196;52.970;6.954;2022-08-19T09:27:36;29.10;84.00
60353;DHT22;46196;52.970;6.954;2022-08-19T09:30:04;29.20;85.30
60353;DHT22;46196;52.970;6.954;2022-08-19T09:32:30;29.20;86.20
60353;DHT22;46196;52.970;6.954;2022-08-19T09:34:56;29.10;83.20
60353;DHT22;46196;52.970;6.954;2022-08-19T09:37:24;29.20;83.40
60353;DHT22;46196;52.970;6.954;2022-08-19T09:39:50;29.20;79.90
60353;DHT22;46196;52.970;6.954;2022-08-19T09:42:16;29.20;75.00
60353;DHT22;46196;52.970;6.954;2022-08-19T09:44:42;29.20;74.60
60353;DHT22;46196;52.970;6.954;2022-08-19T09:47:10;29.20;76.00
60353;DHT22;46196;52.970;6.954;2022-08-19T09:49:37;29.30;75.80
60353;DHT22;46196;52.970;6.954;2022-08-19T09:52:04;29.50;72.90
60353;DHT22;46196;52.970;6.954;2022-08-19T09:54:31;29.60;75.60
60353;DHT22;46196;52.970;6.954;2022-08-19T09:56:58;29.70;71.60
60353;DHT22;46196;52.970;6.954;2022-08-19T09:59:26;29.80;69.40
60353;DHT22;46196;52.970;6.954;2022-08-19T10:01:52;29.60;66.60
60353;DHT22;46196;52.970;6.954;2022-08-19T10:04:18;29.60;73.40
60353;DHT22;46196;52.970;6.954;2022-08-19T10:06:47;29.60;70.50
60353;DHT22;46196;52.970;6.954;2022-08-19T10:09:16;29.60;70.80
60353;DHT22;46196;52.970;6.954;2022-08-19T10:11:44;29.50;65.80
60353;DHT22;46196;52.970;6.954;2022-08-19T10:14:13;29.30;66.00
60353;DHT22;46196;52.970;6.954;2022-08-19T10:16:40;29.10;67.70
60353;DHT22;46196;52.970;6.954;2022-08-19T10:19:07;28.80;67.70
60353;DHT22;46196;52.970;6.954;2022-08-19T10:21:35;28.70;69.10
60353;DHT22;46196;52.970;6.954;2022-08-19T10:24:02;28.40;70.10
60353;DHT22;46196;52.970;6.954;2022-08-19T10:26:37;28.20;72.40
60353;DHT22;46196;52.970;6.954;2022-08-19T10:29:05;28.30;71.50
60353;DHT22;46196;52.970;6.954;2022-08-19T10:31:32;28.20;72.50
60353;DHT22;46196;52.970;6.954;2022-08-19T10:33:59;28.30;74.30
60353;DHT22;46196;52.970;6.954;2022-08-19T10:36:28;28.30;75.30
60353;DHT22;46196;52.970;6.954;2022-08-19T10:38:57;28.30;73.40
60353;DHT22;46196;52.970;6.954;2022-08-19T10:41:26;28.30;76.00
60353;DHT22;46196;52.970;6.954;2022-08-19T10:43:54;28.40;74.40
60353;DHT22;46196;52.970;6.954;2022-08-19T10:46:22;28.40;73.90
60353;DHT22;46196;52.970;6.954;2022-08-19T10:48:48;28.50;72.30
60353;DHT22;46196;52.970;6.954;2022-08-19T10:51:15;28.50;70.00
60353;DHT22;46196;52.970;6.954;2022-08-19T10:54:00;28.30;71.10
60353;DHT22;46196;52.970;6.954;2022-08-19T10:56:27;28.20;68.80
60353;DHT22;46196;52.970;6.954;2022-08-19T10:59:12;28.30;71.50
60353;DHT22;46196;52.970;6.954;2022-08-19T11:01:41;28.20;72.00
60353;DHT22;46196;52.970;6.954;2022-08-19T11:04:07;28.10;68.50
60353;DHT22;46196;52.970;6.954;2022-08-19T11:06:37;28.10;68.60
60353;DHT22;46196;52.970;6.954;2022-08-19T11:09:04;28.10;69.80
60353;DHT22;46196;52.970;6.954;2022-08-19T11:11:31;28.20;71.70
60353;DHT22;46196;52.970;6.954;2022-08-19T11:13:58;28.40;72.50
60353;DHT22;46196;52.970;6.954;2022-08-19T11:16:25;28.40;69.60
60353;DHT22;46196;52.970;6.954;2022-08-19T11:18:56;28.50;69.50
60353;DHT22;46196;52.970;6.954;2022-08-19T11:21:30;28.50;70.70
60353;DHT22;46196;52.970;6.954;2022-08-19T11:24:01;28.50;69.20
60353;DHT22;46196;52.970;6.954;2022-08-19T11:26:28;28.40;72.30
60353;DHT22;46196;52.970;6.954;2022-08-19T11:28:55;28.40;68.00
60353;DHT22;46196;52.970;6.954;2022-08-19T11:31:25;28.40;69.80
60353;DHT22;46196;52.970;6.954;2022-08-19T11:33:51;28.40;70.30
60353;DHT22;46196;52.970;6.954;2022-08-19T11:36:20;28.60;71.20
60353;DHT22;46196;52.970;6.954;2022-08-19T11:38:47;28.60;67.30
60353;DHT22;46196;52.970;6.954;2022-08-19T11:41:15;28.60;65.70
60353;DHT22;46196;52.970;6.954;2022-08-19T11:43:42;28.50;67.50
60353;DHT22;46196;52.970;6.954;2022-08-19T11:46:10;28.50;70.80
60353;DHT22;46196;52.970;6.954;2022-08-19T11:48:37;28.40;70.70
60353;DHT22;46196;52.970;6.954;2022-08-19T11:51:08;28.30;71.60
60353;DHT22;46196;52.970;6.954;2022-08-19T11:53:35;28.40;67.80
60353;DHT22;46196;52.970;6.954;2022-08-19T11:56:02;28.30;68.40
60353;DHT22;46196;52.970;6.954;2022-08-19T11:58:28;28.10;69.80
60353;DHT22;46196;52.970;6.954;2022-08-19T12:00:57;28.00;67.90
60353;DHT22;46196;52.970;6.954;2022-08-19T12:03:24;27.80;69.10
60353;DHT22;46196;52.970;6.954;2022-08-19T12:05:50;27.80;72.60
60353;DHT22;46196;52.970;6.954;2022-08-19T12:08:16;27.70;75.10
60353;DHT22;46196;52.970;6.954;2022-08-19T12:10:42;27.70;75.60
60353;DHT22;46196;52.970;6.954;2022-08-19T12:13:09;27.60;75.60
60353;DHT22;46196;52.970;6.954;2022-08-19T12:15:37;27.40;75.80
60353;DHT22;46196;52.970;6.954;2022-08-19T12:18:04;27.40;74.70
60353;DHT22;46196;52.970;6.954;2022-08-19T12:20:30;27.40;77.50
60353;DHT22;46196;52.970;6.954;2022-08-19T12:22:56;27.40;77.10
60353;DHT22;46196;52.970;6.954;2022-08-19T12:25:22;27.70;76.10
60353;DHT22;46196;52.970;6.954;2022-08-19T12:27:48;28.00;68.00
60353;DHT22;46196;52.970;6.954;2022-08-19T12:30:15;28.00;68.20
60353;DHT22;46196;52.970;6.954;2022-08-19T12:32:41;28.00;68.70
60353;DHT22;46196;52.970;6.954;2022-08-19T12:35:07;27.90;70.10
60353;DHT22;46196;52.970;6.954;2022-08-19T12:37:36;27.80;73.20
60353;DHT22;46196;52.970;6.954;2022-08-19T12:40:02;27.70;76.00
60353;DHT22;46196;52.970;6.954;2022-08-19T12:42:28;27.50;79.10
60353;DHT22;46196;52.970;6.954;2022-08-19T12:44:55;27.30;80.40
60353;DHT22;46196;52.970;6.954;2022-08-19T12:47:20;27.20;83.80
60353;DHT22;46196;52.970;6.954;2022-08-19T12:49:47;27.20;83.90
60353;DHT22;46196;52.970;6.954;2022-08-19T12:52:13;27.20;81.40
60353;DHT22;46196;52.970;6.954;2022-08-19T12:54:42;27.20;83.00
60353;DHT22;46196;52.970;6.954;2022-08-19T12:57:09;27.40;81.60
60353;DHT22;46196;52.970;6.954;2022-08-19T12:59:36;27.50;82.30
60353;DHT22;46196;52.970;6.954;2022-08-19T13:02:06;27.60;79.50
60353;DHT22;46196;52.970;6.954;2022-08-19T13:04:34;27.80;78.90
60353;DHT22;46196;52.970;6.954;2022-08-19T13:07:02;27.90;74.50
60353;DHT22;46196;52.970;6.954;2022-08-19T13:09:28;28.00;74.40
60353;DHT22;46196;52.970;6.954;2022-08-19T13:11:53;28.00;76.40
60353;DHT22;46196;52.970;6.954;2022-08-19T13:14:19;28.00;77.60
60353;DHT22;46196;52.970;6.954;2022-08-19T13:16:45;28.00;78.10
60353;DHT22;46196;52.970;6.954;2022-08-19T13:19:11;28.10;72.60
60353;DHT22;46196;52.970;6.954;2022-08-19T13:21:38;28.20;73.80
60353;DHT22;46196;52.970;6.954;2022-08-19T13:24:04;28.20;73.90
60353;DHT22;46196;52.970;6.954;2022-08-19T13:26:30;28.10;74.10
60353;DHT22;46196;52.970;6.954;2022-08-19T13:28:56;28.00;75.00
60353;DHT22;46196;52.970;6.954;2022-08-19T13:31:41;27.80;75.10
60353;DHT22;46196;52.970;6.954;2022-08-19T13:34:31;27.80;76.20
60353;DHT22;46196;52.970;6.954;2022-08-19T13:36:59;27.70;79.20
60353;DHT22;46196;52.970;6.954;2022-08-19T13:39:28;27.80;80.40
60353;DHT22;46196;52.970;6.954;2022-08-19T13:41:54;28.00;74.20
60353;DHT22;46196;52.970;6.954;2022-08-19T13:44:21;28.20;66.90
60353;DHT22;46196;52.970;6.954;2022-08-19T13:46:48;28.40;64.80
60353;DHT22;46196;52.970;6.954;2022-08-19T13:49:18;28.40;63.80
60353;DHT22;46196;52.970;6.954;2022-08-19T13:51:44;28.30;63.00
60353;DHT22;46196;52.970;6.954;2022-08-19T13:54:11;28.20;63.90
60353;DHT22;46196;52.970;6.954;2022-08-19T13:56:44;28.00;63.00
60353;DHT22;46196;52.970;6.954;2022-08-19T13:59:11;27.90;62.00
60353;DHT22;46196;52.970;6.954;2022-08-19T14:01:37;27.90;61.90
60353;DHT22;46196;52.970;6.954;2022-08-19T14:04:04;28.00;62.10
60353;DHT22;46196;52.970;6.954;2022-08-19T14:06:31;28.10;61.50
60353;DHT22;46196;52.970;6.954;2022-08-19T14:08:57;28.20;61.60
60353;DHT22;46196;52.970;6.954;2022-08-19T14:11:23;28.20;60.10
60353;DHT22;46196;52.970;6.954;2022-08-19T14:13:49;28.30;58.30
60353;DHT22;46196;52.970;6.954;2022-08-19T14:16:15;28.30;55.50
60353;DHT22;46196;52.970;6.954;2022-08-19T14:18:41;28.30;54.80
60353;DHT22;46196;52.970;6.954;2022-08-19T14:21:08;28.20;55.80
60353;DHT22;46196;52.970;6.954;2022-08-19T14:23:38;28.20;54.60
60353;DHT22;46196;52.970;6.954;2022-08-19T14:26:13;28.10;55.20
60353;DHT22;46196;52.970;6.954;2022-08-19T14:28:41;28.10;55.70
60353;DHT22;46196;52.970;6.954;2022-08-19T14:31:11;28.10;56.50
60353;DHT22;46196;52.970;6.954;2022-08-19T14:33:38;28.00;58.40
60353;DHT22;46196;52.970;6.954;2022-08-19T14:36:05;28.10;57.40
60353;DHT22;46196;52.970;6.954;2022-08-19T14:38:31;28.10;57.70
60353;DHT22;46196;52.970;6.954;2022-08-19T14:41:16;28.20;58.10
60353;DHT22;46196;52.970;6.954;2022-08-19T14:43:47;28.30;57.80
60353;DHT22;46196;52.970;6.954;2022-08-19T14:46:15;28.10;73.00
60353;DHT22;46196;52.970;6.954;2022-08-19T14:48:41;28.00;81.20
60353;DHT22;46196;52.970;6.954;2022-08-19T14:51:08;27.70;88.10
60353;DHT22;46196;52.970;6.954;2022-08-19T14:53:34;27.40;92.60
60353;DHT22;46196;52.970;6.954;2022-08-19T14:56:01;27.20;94.40
60353;DHT22;46196;52.970;6.954;2022-08-19T14:58:27;27.10;96.00
60353;DHT22;46196;52.970;6.954;2022-08-19T15:00:53;26.90;97.80
60353;DHT22;46196;52.970;6.954;2022-08-19T15:03:19;26.80;98.60
60353;DHT22;46196;52.970;6.954;2022-08-19T15:05:44;26.70;99.30
60353;DHT22;46196;52.970;6.954;2022-08-19T15:08:10;26.70;99.00
60353;DHT22;46196;52.970;6.954;2022-08-19T15:10:38;26.60;99.10
60353;DHT22;46196;52.970;6.954;2022-08-19T15:13:04;26.40;99.30
60353;DHT22;46196;52.970;6.954;2022-08-19T15:15:29;26.30;99.90
60353;DHT22;46196;52.970;6.954;2022-08-19T15:17:55;26.20;99.90
60353;DHT22;46196;52.970;6.954;2022-08-19T15:20:28;26.10;99.90
60353;DHT22;46196;52.970;6.954;2022-08-19T15:22:54;26.00;99.90
60353;DHT22;46196;52.970;6.954;2022-08-19T15:25:20;25.90;99.90
60353;DHT22;46196;52.970;6.954;2022-08-19T15:27:47;25.80;99.90
60353;DHT22;46196;52.970;6.954;2022-08-19T15:30:20;25.70;99.90
60353;DHT22;46196;52.970;6.954;2022-08-19T15:32:47;25.70;99.90
60353;DHT22;46196;52.970;6.954;2022-08-19T15:35:13;25.60;99.90
60353;DHT22;46196;52.970;6.954;2022-08-19T15:37:39;25.50;99.90
60353;DHT22;46196;52.970;6.954;2022-08-19T15:40:05;25.40;99.90
60353;DHT22;46196;52.970;6.954;2022-08-19T15:42:35;25.40;99.90
60353;DHT22;46196;52.970;6.954;2022-08-19T15:45:03;25.40;99.90
60353;DHT22;46196;52.970;6.954;2022-08-19T15:47:29;25.40;99.90
60353;DHT22;46196;52.970;6.954;2022-08-19T15:49:55;25.30;99.90
60353;DHT22;46196;52.970;6.954;2022-08-19T15:52:21;25.30;99.90
60353;DHT22;46196;52.970;6.954;2022-08-19T15:54:46;25.30;99.90
60353;DHT22;46196;52.970;6.954;2022-08-19T15:57:12;25.20;99.90